createdAt,value
2023-01-05T00:00:59.433Z,1009.84
2023-01-05T00:01:59.476Z,1009.86
2023-01-05T00:02:59.387Z,1009.89
2023-01-05T00:03:59.460Z,1009.82
2023-01-05T00:04:59.368Z,1009.82
2023-01-05T00:05:59.355Z,1009.81
2023-01-05T00:06:59.361Z,1009.85
2023-01-05T00:07:59.348Z,1009.84
2023-01-05T00:08:59.324Z,1009.81
2023-01-05T00:09:59.306Z,1009.81
2023-01-05T00:10:59.309Z,1009.78
2023-01-05T00:11:59.295Z,1009.80
2023-01-05T00:12:59.268Z,1009.75
2023-01-05T00:13:59.277Z,1009.81
2023-01-05T00:14:59.257Z,1009.88
2023-01-05T00:15:59.262Z,1009.85
2023-01-05T00:16:59.331Z,1009.99
2023-01-05T00:17:59.224Z,1009.96
2023-01-05T00:18:59.203Z,1009.93
2023-01-05T00:19:59.206Z,1009.98
2023-01-05T00:20:59.194Z,1009.99
2023-01-05T00:21:59.187Z,1009.93
2023-01-05T00:22:59.168Z,1009.96
2023-01-05T00:23:59.155Z,1009.88
2023-01-05T00:24:59.150Z,1009.84
2023-01-05T00:25:59.126Z,1009.93
2023-01-05T00:26:59.127Z,1009.95
2023-01-05T00:27:59.153Z,1010.02
2023-01-05T00:28:59.102Z,1009.95
2023-01-05T00:29:59.089Z,1009.94
2023-01-05T00:30:59.090Z,1010.03
2023-01-05T00:31:59.106Z,1009.97
2023-01-05T00:32:59.080Z,1009.98
2023-01-05T00:33:59.054Z,1009.98
2023-01-05T00:34:59.044Z,1010.03
2023-01-05T00:35:59.034Z,1010.00
2023-01-05T00:36:59.017Z,1010.00
2023-01-05T00:37:58.993Z,1010.04
2023-01-05T00:38:58.987Z,1010.04
2023-01-05T00:39:58.998Z,1010.02
2023-01-05T00:40:58.970Z,1010.08
2023-01-05T00:41:58.957Z,1010.06
2023-01-05T00:42:58.935Z,1010.10
2023-01-05T00:43:58.936Z,1010.09
2023-01-05T00:44:58.931Z,1010.18
2023-01-05T00:45:58.981Z,1010.21
2023-01-05T00:46:58.895Z,1010.12
2023-01-05T00:47:58.876Z,1010.17
2023-01-05T00:48:58.896Z,1010.15
2023-01-05T00:49:58.870Z,1010.12
2023-01-05T00:50:58.852Z,1010.20
2023-01-05T00:51:58.837Z,1010.20
2023-01-05T00:52:58.839Z,1010.26
2023-01-05T00:53:58.813Z,1010.13
2023-01-05T00:54:58.804Z,1010.19
2023-01-05T00:55:58.817Z,1010.16
2023-01-05T00:56:58.773Z,1010.11
2023-01-05T00:57:58.832Z,1010.14
2023-01-05T00:58:58.749Z,1010.16
2023-01-05T00:59:58.768Z,1010.01
2023-01-05T01:00:58.792Z,1010.06
2023-01-05T01:01:59.002Z,1010.09
2023-01-05T01:02:58.797Z,1010.09
2023-01-05T01:03:58.691Z,1010.14
2023-01-05T01:04:58.793Z,1010.19
2023-01-05T01:05:58.688Z,1010.12
2023-01-05T01:06:58.671Z,1010.14
2023-01-05T01:07:58.693Z,1010.08
2023-01-05T01:08:58.645Z,1010.17
2023-01-05T01:09:58.651Z,1010.17
2023-01-05T01:10:58.648Z,1010.14
2023-01-05T01:11:58.615Z,1010.27
2023-01-05T01:12:58.585Z,1010.08
2023-01-05T01:13:58.610Z,1010.11
2023-01-05T01:14:58.619Z,1010.03
2023-01-05T01:15:58.571Z,1010.08
2023-01-05T01:16:58.687Z,1010.03
2023-01-05T01:17:58.537Z,1010.06
2023-01-05T01:19:02.961Z,1010.09
2023-01-05T01:19:59.520Z,1010.10
2023-01-05T01:20:58.550Z,1010.11
2023-01-05T01:21:58.514Z,1010.22
2023-01-05T01:22:58.485Z,1010.06
2023-01-05T01:23:58.486Z,1010.11
2023-01-05T01:24:58.460Z,1010.12
2023-01-05T01:25:58.442Z,1010.13
2023-01-05T01:26:58.432Z,1010.19
2023-01-05T01:27:58.415Z,1010.21
2023-01-05T01:28:58.415Z,1010.20
2023-01-05T01:29:58.437Z,1010.16
2023-01-05T01:30:58.464Z,1010.20
2023-01-05T01:31:58.392Z,1010.26
2023-01-05T01:32:58.368Z,1010.19
2023-01-05T01:33:58.364Z,1010.18
2023-01-05T01:34:58.362Z,1010.16
2023-01-05T01:35:58.327Z,1010.15
2023-01-05T01:36:58.351Z,1010.07
2023-01-05T01:37:58.304Z,1010.16
2023-01-05T01:38:58.312Z,1010.13
2023-01-05T01:39:58.291Z,1010.12
2023-01-05T01:40:58.273Z,1010.10
2023-01-05T01:41:58.255Z,1010.25
2023-01-05T01:42:58.253Z,1010.32
2023-01-05T01:43:58.251Z,1010.26
2023-01-05T01:44:58.281Z,1010.17
2023-01-05T01:45:58.246Z,1010.21
2023-01-05T01:46:58.200Z,1010.18
2023-01-05T01:47:58.204Z,1010.19
2023-01-05T01:48:58.176Z,1010.19
2023-01-05T01:49:58.187Z,1010.26
2023-01-05T01:51:00.962Z,1010.30
2023-01-05T01:51:59.140Z,1010.20
2023-01-05T01:52:58.201Z,1010.20
2023-01-05T01:53:58.133Z,1010.17
2023-01-05T01:54:58.110Z,1010.17
2023-01-05T01:55:58.120Z,1010.16
2023-01-05T01:56:58.088Z,1010.22
2023-01-05T01:57:58.069Z,1010.14
2023-01-05T01:58:58.079Z,1010.15
2023-01-05T01:59:58.067Z,1010.23
2023-01-05T02:00:58.094Z,1010.18
2023-01-05T02:01:58.197Z,1010.18
2023-01-05T02:02:58.032Z,1010.16
2023-01-05T02:03:58.014Z,1010.11
2023-01-05T02:04:58.082Z,1010.12
2023-01-05T02:05:57.985Z,1010.06
2023-01-05T02:06:57.995Z,1010.14
2023-01-05T02:07:57.980Z,1010.08
2023-01-05T02:08:57.972Z,1010.07
2023-01-05T02:09:57.941Z,1010.09
2023-01-05T02:10:57.969Z,1010.10
2023-01-05T02:11:57.930Z,1010.07
2023-01-05T02:12:57.913Z,1010.12
2023-01-05T02:13:57.906Z,1010.24
2023-01-05T02:14:57.883Z,1010.08
2023-01-05T02:15:57.880Z,1010.13
2023-01-05T02:16:57.931Z,1010.10
2023-01-05T02:17:57.865Z,1010.23
2023-01-05T02:18:57.850Z,1010.13
2023-01-05T02:19:57.839Z,1010.09
2023-01-05T02:20:57.826Z,1010.15
2023-01-05T02:21:57.823Z,1010.18
2023-01-05T02:22:57.800Z,1010.14
2023-01-05T02:23:57.847Z,1010.14
2023-01-05T02:24:57.796Z,1010.07
2023-01-05T02:25:57.769Z,1010.26
2023-01-05T02:26:57.743Z,1010.13
2023-01-05T02:27:57.733Z,1010.22
2023-01-05T02:28:57.746Z,1010.12
2023-01-05T02:29:57.714Z,1010.17
2023-01-05T02:30:57.726Z,1010.18
2023-01-05T02:31:57.696Z,1010.14
2023-01-05T02:32:57.690Z,1010.11
2023-01-05T02:33:57.684Z,1010.06
2023-01-05T02:34:57.655Z,1010.13
2023-01-05T02:35:57.645Z,1010.02
2023-01-05T02:36:57.656Z,1010.01
2023-01-05T02:37:57.635Z,1010.07
2023-01-05T02:38:57.636Z,1010.04
2023-01-05T02:39:57.617Z,1010.05
2023-01-05T02:40:57.622Z,1010.05
2023-01-05T02:41:57.594Z,1010.03
2023-01-05T02:42:57.562Z,1010.00
2023-01-05T02:43:57.579Z,1010.03
2023-01-05T02:44:57.560Z,1010.14
2023-01-05T02:45:57.560Z,1010.16
2023-01-05T02:46:57.534Z,1010.08
2023-01-05T02:47:57.507Z,1010.09
2023-01-05T02:48:57.516Z,1010.09
2023-01-05T02:49:57.503Z,1010.17
2023-01-05T02:50:57.506Z,1010.12
2023-01-05T02:51:57.464Z,1010.11
2023-01-05T02:52:57.474Z,1010.15
2023-01-05T02:53:57.439Z,1010.27
2023-01-05T02:54:57.428Z,1010.22
2023-01-05T02:55:57.441Z,1010.26
2023-01-05T02:56:57.438Z,1010.33
2023-01-05T02:57:57.407Z,1010.25
2023-01-05T02:58:57.402Z,1010.26
2023-01-05T02:59:57.383Z,1010.34
2023-01-05T03:00:57.466Z,1010.29
2023-01-05T03:01:57.499Z,1010.28
2023-01-05T03:02:57.587Z,1010.33
2023-01-05T03:03:57.328Z,1010.32
2023-01-05T03:04:57.345Z,1010.28
2023-01-05T03:05:57.298Z,1010.35
2023-01-05T03:06:57.329Z,1010.31
2023-01-05T03:07:57.295Z,1010.26
2023-01-05T03:08:57.268Z,1010.39
2023-01-05T03:09:57.271Z,1010.50
2023-01-05T03:10:57.268Z,1010.47
2023-01-05T03:11:57.258Z,1010.35
2023-01-05T03:12:57.248Z,1010.37
2023-01-05T03:13:57.215Z,1010.36
2023-01-05T03:14:57.202Z,1010.40
2023-01-05T03:15:57.297Z,1010.38
2023-01-05T03:16:57.192Z,1010.40
2023-01-05T03:17:57.177Z,1010.42
2023-01-05T03:18:57.165Z,1010.37
2023-01-05T03:19:57.158Z,1010.26
2023-01-05T03:20:57.146Z,1010.63
2023-01-05T03:21:57.138Z,1010.37
2023-01-05T03:22:57.110Z,1010.36
2023-01-05T03:23:57.106Z,1010.34
2023-01-05T03:24:57.104Z,1010.48
2023-01-05T03:25:57.086Z,1010.35
2023-01-05T03:26:57.085Z,1010.58
2023-01-05T03:27:57.065Z,1010.38
2023-01-05T03:28:57.072Z,1010.49
2023-01-05T03:29:57.025Z,1010.44
2023-01-05T03:30:57.103Z,1010.53
2023-01-05T03:31:57.028Z,1010.57
2023-01-05T03:32:57.010Z,1010.57
2023-01-05T03:33:56.980Z,1010.53
2023-01-05T03:34:57.029Z,1010.44
2023-01-05T03:35:56.988Z,1010.50
2023-01-05T03:36:56.963Z,1010.42
2023-01-05T03:37:56.934Z,1010.48
2023-01-05T03:38:56.942Z,1010.59
2023-01-05T03:39:56.945Z,1010.52
2023-01-05T03:40:56.930Z,1010.49
2023-01-05T03:41:56.911Z,1010.54
2023-01-05T03:42:56.904Z,1010.47
2023-01-05T03:43:56.871Z,1010.44
2023-01-05T03:44:56.893Z,1010.56
2023-01-05T03:45:56.887Z,1010.57
2023-01-05T03:46:56.866Z,1010.85
2023-01-05T03:47:56.827Z,1010.49
2023-01-05T03:48:56.812Z,1010.51
2023-01-05T03:49:56.817Z,1010.62
2023-01-05T03:50:56.792Z,1010.62
2023-01-05T03:51:56.807Z,1010.60
2023-01-05T03:52:56.763Z,1010.61
2023-01-05T03:53:56.767Z,1010.57
2023-01-05T03:54:56.785Z,1010.74
2023-01-05T03:55:56.757Z,1010.75
2023-01-05T03:56:56.733Z,1010.61
2023-01-05T03:57:56.731Z,1010.57
2023-01-05T03:58:56.712Z,1010.58
2023-01-05T03:59:56.702Z,1010.64
2023-01-05T04:00:56.697Z,1010.59
2023-01-05T04:01:56.805Z,1010.59
2023-01-05T04:02:56.741Z,1010.59
2023-01-05T04:03:56.683Z,1010.49
2023-01-05T04:04:56.661Z,1010.60
2023-01-05T04:05:56.635Z,1010.48
2023-01-05T04:06:56.627Z,1010.59
2023-01-05T04:07:56.600Z,1010.48
2023-01-05T04:08:56.587Z,1010.50
2023-01-05T04:09:56.589Z,1010.50
2023-01-05T04:10:56.570Z,1010.56
2023-01-05T04:11:56.588Z,1010.51
2023-01-05T04:12:56.576Z,1010.49
2023-01-05T04:13:56.542Z,1010.62
2023-01-05T04:14:56.519Z,1010.50
2023-01-05T04:15:56.628Z,1010.67
2023-01-05T04:16:56.563Z,1010.66
2023-01-05T04:17:56.506Z,1010.69
2023-01-05T04:18:56.474Z,1010.63
2023-01-05T04:19:56.469Z,1010.66
2023-01-05T04:20:56.451Z,1010.60
2023-01-05T04:21:56.482Z,1010.58
2023-01-05T04:22:56.440Z,1010.52
2023-01-05T04:23:56.441Z,1010.60
2023-01-05T04:24:56.406Z,1010.59
2023-01-05T04:25:56.405Z,1010.61
2023-01-05T04:26:56.404Z,1010.54
2023-01-05T04:27:56.371Z,1010.59
2023-01-05T04:28:56.373Z,1010.66
2023-01-05T04:29:56.351Z,1010.63
2023-01-05T04:30:56.456Z,1010.57
2023-01-05T04:31:56.324Z,1010.63
2023-01-05T04:32:56.362Z,1010.67
2023-01-05T04:33:56.341Z,1010.64
2023-01-05T04:34:56.303Z,1010.65
2023-01-05T04:35:56.293Z,1010.72
2023-01-05T04:36:56.286Z,1010.75
2023-01-05T04:37:56.271Z,1010.66
2023-01-05T04:38:56.279Z,1010.75
2023-01-05T04:39:56.253Z,1010.77
2023-01-05T04:40:56.217Z,1010.69
2023-01-05T04:41:56.216Z,1010.70
2023-01-05T04:42:56.214Z,1010.72
2023-01-05T04:43:56.191Z,1010.90
2023-01-05T04:44:56.207Z,1010.58
2023-01-05T04:45:56.163Z,1010.69
2023-01-05T04:46:56.226Z,1010.67
2023-01-05T04:47:56.139Z,1010.81
2023-01-05T04:48:56.172Z,1010.66
2023-01-05T04:49:56.132Z,1010.72
2023-01-05T04:50:56.154Z,1010.75
2023-01-05T04:51:56.117Z,1010.74
2023-01-05T04:52:56.093Z,1010.68
2023-01-05T04:53:56.084Z,1010.71
2023-01-05T04:54:56.075Z,1010.78
2023-01-05T04:55:56.073Z,1010.68
2023-01-05T04:56:56.085Z,1010.68
2023-01-05T04:57:56.048Z,1010.68
2023-01-05T04:58:56.013Z,1010.74
2023-01-05T04:59:56.010Z,1010.72
2023-01-05T05:00:56.016Z,1010.65
2023-01-05T05:01:56.104Z,1010.63
2023-01-05T05:02:56.222Z,1010.69
2023-01-05T05:03:56.065Z,1010.71
2023-01-05T05:04:55.980Z,1010.54
2023-01-05T05:05:55.951Z,1010.66
2023-01-05T05:06:55.930Z,1010.57
2023-01-05T05:07:55.913Z,1010.66
2023-01-05T05:08:55.947Z,1010.64
2023-01-05T05:09:55.893Z,1010.62
2023-01-05T05:10:55.885Z,1010.70
2023-01-05T05:11:55.885Z,1010.68
2023-01-05T05:12:55.874Z,1010.78
2023-01-05T05:13:55.879Z,1010.64
2023-01-05T05:14:55.846Z,1010.69
2023-01-05T05:15:55.900Z,1010.65
2023-01-05T05:16:55.824Z,1010.64
2023-01-05T05:17:55.806Z,1010.65
2023-01-05T05:18:55.804Z,1010.68
2023-01-05T05:19:55.795Z,1010.69
2023-01-05T05:20:55.805Z,1010.70
2023-01-05T05:21:55.800Z,1010.65
2023-01-05T05:22:55.755Z,1010.77
2023-01-05T05:23:55.739Z,1010.67
2023-01-05T05:24:55.723Z,1010.65
2023-01-05T05:25:55.723Z,1010.69
2023-01-05T05:26:55.709Z,1010.70
2023-01-05T05:27:55.693Z,1010.71
2023-01-05T05:28:55.689Z,1010.75
2023-01-05T05:29:55.687Z,1010.83
2023-01-05T05:30:55.753Z,1010.78
2023-01-05T05:31:55.657Z,1010.77
2023-01-05T05:32:55.641Z,1010.75
2023-01-05T05:33:55.650Z,1010.72
2023-01-05T05:34:55.631Z,1010.75
2023-01-05T05:35:55.601Z,1010.80
2023-01-05T05:36:55.630Z,1010.88
2023-01-05T05:37:56.794Z,1010.78
2023-01-05T05:38:55.595Z,1010.84
2023-01-05T05:39:55.574Z,1010.89
2023-01-05T05:40:55.560Z,1011.02
2023-01-05T05:41:55.536Z,1010.94
2023-01-05T05:42:55.534Z,1010.85
2023-01-05T05:43:55.502Z,1010.91
2023-01-05T05:44:55.508Z,1010.88
2023-01-05T05:45:55.502Z,1010.85
2023-01-05T05:46:55.576Z,1010.84
2023-01-05T05:47:55.461Z,1010.83
2023-01-05T05:48:55.456Z,1010.89
2023-01-05T05:49:55.467Z,1010.91
2023-01-05T05:50:55.471Z,1010.98
2023-01-05T05:51:55.424Z,1011.01
2023-01-05T05:52:55.449Z,1011.02
2023-01-05T05:53:55.398Z,1010.97
2023-01-05T05:54:55.395Z,1010.98
2023-01-05T05:55:55.381Z,1010.94
2023-01-05T05:56:55.376Z,1010.97
2023-01-05T05:57:55.346Z,1010.92
2023-01-05T05:59:01.057Z,1011.02
2023-01-05T05:59:56.333Z,1010.95
2023-01-05T06:00:55.321Z,1010.97
2023-01-05T06:01:55.430Z,1011.00
2023-01-05T06:02:55.472Z,1011.04
2023-01-05T06:03:55.323Z,1011.22
2023-01-05T06:04:55.305Z,1011.15
2023-01-05T06:05:55.277Z,1011.08
2023-01-05T06:06:55.313Z,1011.16
2023-01-05T06:07:55.257Z,1011.09
2023-01-05T06:08:55.270Z,1011.09
2023-01-05T06:09:55.250Z,1011.16
2023-01-05T06:10:55.216Z,1011.20
2023-01-05T06:11:55.207Z,1011.20
2023-01-05T06:12:55.237Z,1011.22
2023-01-05T06:13:55.207Z,1011.18
2023-01-05T06:14:55.181Z,1011.22
2023-01-05T06:15:55.256Z,1011.26
2023-01-05T06:16:55.143Z,1011.32
2023-01-05T06:17:55.154Z,1011.38
2023-01-05T06:18:55.148Z,1011.33
2023-01-05T06:19:55.126Z,1011.36
2023-01-05T06:20:59.575Z,1011.28
2023-01-05T06:21:56.083Z,1011.29
2023-01-05T06:22:55.129Z,1011.26
2023-01-05T06:23:55.113Z,1011.16
2023-01-05T06:24:55.100Z,1011.24
2023-01-05T06:25:55.055Z,1011.22
2023-01-05T06:26:55.020Z,1011.25
2023-01-05T06:27:55.089Z,1011.31
2023-01-05T06:29:02.839Z,1011.31
2023-01-05T06:29:54.981Z,1011.22
2023-01-05T06:30:55.000Z,1011.28
2023-01-05T06:31:55.088Z,1011.33
2023-01-05T06:32:54.979Z,1011.31
2023-01-05T06:33:54.959Z,1011.44
2023-01-05T06:34:54.946Z,1011.56
2023-01-05T06:35:54.953Z,1011.37
2023-01-05T06:36:57.923Z,1011.40
2023-01-05T06:37:55.915Z,1011.37
2023-01-05T06:38:54.895Z,1011.50
2023-01-05T06:39:54.882Z,1011.47
2023-01-05T06:40:54.921Z,1011.48
2023-01-05T06:41:54.864Z,1011.52
2023-01-05T06:42:54.863Z,1011.47
2023-01-05T06:43:54.849Z,1011.55
2023-01-05T06:44:54.864Z,1011.40
2023-01-05T06:45:54.892Z,1011.48
2023-01-05T06:46:54.837Z,1011.41
2023-01-05T06:47:54.791Z,1011.52
2023-01-05T06:48:54.798Z,1011.45
2023-01-05T06:49:54.805Z,1011.55
2023-01-05T06:50:54.752Z,1011.55
2023-01-05T06:51:54.761Z,1011.51
2023-01-05T06:52:54.781Z,1011.49
2023-01-05T06:53:54.713Z,1011.57
2023-01-05T06:54:54.753Z,1011.54
2023-01-05T06:55:54.709Z,1011.68
2023-01-05T06:56:54.772Z,1011.54
2023-01-05T06:58:00.443Z,1011.60
2023-01-05T06:58:55.662Z,1011.65
2023-01-05T06:59:54.684Z,1011.55
2023-01-05T07:00:54.715Z,1011.66
2023-01-05T07:01:54.811Z,1011.67
2023-01-05T07:02:54.628Z,1011.78
2023-01-05T07:03:54.693Z,1011.68
2023-01-05T07:04:54.598Z,1011.65
2023-01-05T07:05:54.587Z,1011.75
2023-01-05T07:06:54.590Z,1011.64
2023-01-05T07:07:54.567Z,1011.73
2023-01-05T07:08:54.580Z,1011.75
2023-01-05T07:09:54.543Z,1011.76
2023-01-05T07:10:54.589Z,1011.78
2023-01-05T07:11:54.550Z,1011.80
2023-01-05T07:12:54.575Z,1011.77
2023-01-05T07:13:54.521Z,1011.85
2023-01-05T07:14:57.679Z,1011.73
2023-01-05T07:15:54.542Z,1011.86
2023-01-05T07:16:54.564Z,1011.77
2023-01-05T07:17:54.457Z,1011.79
2023-01-05T07:18:54.454Z,1011.80
2023-01-05T07:19:54.443Z,1011.81
2023-01-05T07:20:54.403Z,1011.83
2023-01-05T07:21:56.895Z,1011.88
2023-01-05T07:22:54.412Z,1011.98
2023-01-05T07:23:54.394Z,1011.94
2023-01-05T07:24:54.366Z,1011.85
2023-01-05T07:25:54.349Z,1011.88
2023-01-05T07:26:54.368Z,1011.89
2023-01-05T07:27:54.340Z,1012.07
2023-01-05T07:28:54.340Z,1011.87
2023-01-05T07:29:54.320Z,1011.98
2023-01-05T07:30:54.295Z,1011.92
2023-01-05T07:31:54.344Z,1011.95
2023-01-05T07:32:54.318Z,1011.93
2023-01-05T07:33:54.302Z,1011.94
2023-01-05T07:34:55.629Z,1011.96
2023-01-05T07:35:54.240Z,1012.05
2023-01-05T07:36:54.246Z,1011.98
2023-01-05T07:37:54.239Z,1011.96
2023-01-05T07:38:55.244Z,1011.97
2023-01-05T07:39:54.245Z,1012.07
2023-01-05T07:40:54.246Z,1012.12
2023-01-05T07:41:54.196Z,1012.10
2023-01-05T07:42:54.185Z,1012.16
2023-01-05T07:43:54.174Z,1012.15
2023-01-05T07:44:54.152Z,1012.12
2023-01-05T07:45:54.205Z,1012.14
2023-01-05T07:46:54.184Z,1012.18
2023-01-05T07:47:54.121Z,1012.13
2023-01-05T07:48:54.110Z,1012.18
2023-01-05T07:49:54.086Z,1012.18
2023-01-05T07:50:54.071Z,1012.19
2023-01-05T07:51:54.075Z,1012.27
2023-01-05T07:52:54.057Z,1012.21
2023-01-05T07:53:54.071Z,1012.22
2023-01-05T07:54:54.020Z,1012.23
2023-01-05T07:55:54.068Z,1012.17
2023-01-05T07:56:54.062Z,1012.20
2023-01-05T07:57:53.991Z,1012.23
2023-01-05T07:58:54.004Z,1012.24
2023-01-05T07:59:53.997Z,1012.24
2023-01-05T08:00:54.038Z,1012.24
2023-01-05T08:01:54.122Z,1012.30
2023-01-05T08:02:54.127Z,1012.31
2023-01-05T08:03:53.977Z,1012.39
2023-01-05T08:04:53.913Z,1012.37
2023-01-05T08:05:53.916Z,1012.45
2023-01-05T08:06:53.908Z,1012.42
2023-01-05T08:07:53.881Z,1012.39
2023-01-05T08:08:53.878Z,1012.41
2023-01-05T08:09:53.848Z,1012.42
2023-01-05T08:10:53.910Z,1012.43
2023-01-05T08:11:53.861Z,1012.40
2023-01-05T08:12:53.842Z,1012.45
2023-01-05T08:13:53.825Z,1012.49
2023-01-05T08:14:53.858Z,1012.51
2023-01-05T08:15:53.824Z,1012.58
2023-01-05T08:16:53.888Z,1012.54
2023-01-05T08:17:53.776Z,1012.60
2023-01-05T08:18:53.836Z,1012.53
2023-01-05T08:19:53.766Z,1012.54
2023-01-05T08:20:53.784Z,1012.57
2023-01-05T08:21:53.773Z,1012.67
2023-01-05T08:22:53.726Z,1012.60
2023-01-05T08:23:53.701Z,1012.65
2023-01-05T08:24:53.728Z,1012.59
2023-01-05T08:25:53.691Z,1012.66
2023-01-05T08:26:53.740Z,1012.68
2023-01-05T08:27:53.670Z,1012.57
2023-01-05T08:28:53.635Z,1012.65
2023-01-05T08:29:53.677Z,1012.60
2023-01-05T08:30:53.643Z,1012.58
2023-01-05T08:31:53.687Z,1012.56
2023-01-05T08:32:53.651Z,1012.62
2023-01-05T08:33:53.604Z,1012.62
2023-01-05T08:34:55.585Z,1012.59
2023-01-05T08:35:53.573Z,1012.61
2023-01-05T08:36:53.581Z,1012.67
2023-01-05T08:37:53.557Z,1012.64
2023-01-05T08:38:53.512Z,1012.63
2023-01-05T08:39:53.552Z,1012.64
2023-01-05T08:40:53.629Z,1012.59
2023-01-05T08:41:58.871Z,1012.70
2023-01-05T08:42:54.487Z,1012.59
2023-01-05T08:43:53.526Z,1012.65
2023-01-05T08:44:53.469Z,1012.64
2023-01-05T08:45:53.546Z,1012.66
2023-01-05T08:46:53.511Z,1012.65
2023-01-05T08:47:53.605Z,1012.77
2023-01-05T08:48:53.465Z,1012.74
2023-01-05T08:49:53.432Z,1012.71
2023-01-05T08:50:53.415Z,1012.72
2023-01-05T08:51:53.441Z,1012.74
2023-01-05T08:52:53.360Z,1012.71
2023-01-05T08:53:53.381Z,1012.74
2023-01-05T08:54:53.368Z,1012.73
2023-01-05T08:55:53.358Z,1012.69
2023-01-05T08:56:53.340Z,1012.72
2023-01-05T08:57:53.311Z,1012.77
2023-01-05T08:58:53.288Z,1012.76
2023-01-05T08:59:53.305Z,1012.80
2023-01-05T09:00:53.289Z,1012.84
2023-01-05T09:01:53.507Z,1012.84
2023-01-05T09:02:53.398Z,1012.84
2023-01-05T09:03:53.225Z,1012.81
2023-01-05T09:04:53.251Z,1012.85
2023-01-05T09:05:53.213Z,1012.82
2023-01-05T09:06:53.223Z,1012.88
2023-01-05T09:07:53.181Z,1012.92
2023-01-05T09:08:53.187Z,1012.89
2023-01-05T09:09:53.218Z,1012.88
2023-01-05T09:10:53.162Z,1012.93
2023-01-05T09:11:53.168Z,1012.90
2023-01-05T09:12:53.126Z,1012.93
2023-01-05T09:13:53.167Z,1012.90
2023-01-05T09:14:53.129Z,1012.91
2023-01-05T09:15:53.139Z,1012.90
2023-01-05T09:17:09.208Z,1012.88
2023-01-05T09:17:54.183Z,1012.98
2023-01-05T09:18:53.105Z,1012.90
2023-01-05T09:19:53.087Z,1012.92
2023-01-05T09:20:53.069Z,1012.92
2023-01-05T09:21:53.048Z,1012.88
2023-01-05T09:22:53.035Z,1012.86
2023-01-05T09:23:53.046Z,1012.95
2023-01-05T09:24:53.019Z,1013.02
2023-01-05T09:25:53.002Z,1012.94
2023-01-05T09:26:52.987Z,1012.92
2023-01-05T09:27:53.016Z,1012.94
2023-01-05T09:28:52.979Z,1012.97
2023-01-05T09:29:52.969Z,1012.97
2023-01-05T09:30:52.997Z,1013.05
2023-01-05T09:31:52.938Z,1012.99
2023-01-05T09:32:52.922Z,1013.01
2023-01-05T09:33:52.910Z,1013.06
2023-01-05T09:34:52.925Z,1013.07
2023-01-05T09:35:52.870Z,1013.03
2023-01-05T09:36:52.989Z,1012.98
2023-01-05T09:37:52.884Z,1013.05
2023-01-05T09:38:52.857Z,1013.12
2023-01-05T09:39:52.826Z,1013.13
2023-01-05T09:40:52.833Z,1013.14
2023-01-05T09:41:52.832Z,1013.15
2023-01-05T09:42:52.807Z,1013.10
2023-01-05T09:43:52.813Z,1013.20
2023-01-05T09:44:58.664Z,1013.18
2023-01-05T09:45:53.852Z,1013.22
2023-01-05T09:46:52.809Z,1013.30
2023-01-05T09:47:52.737Z,1013.21
2023-01-05T09:48:52.743Z,1013.32
2023-01-05T09:49:52.743Z,1013.32
2023-01-05T09:50:52.706Z,1013.36
2023-01-05T09:51:52.712Z,1013.40
2023-01-05T09:52:52.831Z,1013.36
2023-01-05T09:53:52.700Z,1013.33
2023-01-05T09:54:53.088Z,1013.34
2023-01-05T09:55:52.651Z,1013.39
2023-01-05T09:57:09.940Z,1013.32
2023-01-05T09:57:53.656Z,1013.35
2023-01-05T09:58:52.617Z,1013.36
2023-01-05T09:59:52.625Z,1013.36
2023-01-05T10:00:52.684Z,1013.42
2023-01-05T10:01:52.657Z,1013.40
2023-01-05T10:02:52.645Z,1013.41
2023-01-05T10:04:03.487Z,1013.41
2023-01-05T10:04:53.739Z,1013.39
2023-01-05T10:05:52.559Z,1013.42
2023-01-05T10:06:52.550Z,1013.42
2023-01-05T10:07:52.546Z,1013.31
2023-01-05T10:08:52.606Z,1013.43
2023-01-05T10:09:52.511Z,1013.46
2023-01-05T10:10:52.535Z,1013.43
2023-01-05T10:11:52.497Z,1013.47
2023-01-05T10:12:52.471Z,1013.50
2023-01-05T10:13:52.449Z,1013.49
2023-01-05T10:14:52.429Z,1013.48
2023-01-05T10:15:52.486Z,1013.48
2023-01-05T10:16:57.757Z,1013.47
2023-01-05T10:17:53.418Z,1013.51
2023-01-05T10:18:52.402Z,1013.54
2023-01-05T10:19:52.370Z,1013.51
2023-01-05T10:20:52.486Z,1013.60
2023-01-05T10:21:52.358Z,1013.46
2023-01-05T10:22:52.341Z,1013.49
2023-01-05T10:23:52.331Z,1013.56
2023-01-05T10:24:52.443Z,1013.60
2023-01-05T10:25:52.327Z,1013.58
2023-01-05T10:27:23.547Z,1013.51
2023-01-05T10:27:56.715Z,1013.52
2023-01-05T10:28:52.290Z,1013.52
2023-01-05T10:29:52.288Z,1013.50
2023-01-05T10:30:52.285Z,1013.72
2023-01-05T10:31:52.262Z,1013.51
2023-01-05T10:32:52.226Z,1013.54
2023-01-05T10:33:55.699Z,1013.57
2023-01-05T10:34:53.215Z,1013.54
2023-01-05T10:36:01.210Z,1013.58
2023-01-05T10:37:09.696Z,1013.58
2023-01-05T10:37:53.182Z,1013.59
2023-01-05T10:38:52.158Z,1013.53
2023-01-05T10:39:56.234Z,1013.55
2023-01-05T10:40:52.290Z,1013.61
2023-01-05T10:41:52.135Z,1013.57
2023-01-05T10:42:52.109Z,1013.65
2023-01-05T10:43:52.120Z,1013.67
2023-01-05T10:44:52.088Z,1013.66
2023-01-05T10:46:28.591Z,1013.75
2023-01-05T10:46:53.309Z,1013.72
2023-01-05T10:47:52.103Z,1013.72
2023-01-05T10:48:52.035Z,1013.67
2023-01-05T10:49:52.074Z,1013.68
2023-01-05T10:50:52.050Z,1013.72
2023-01-05T10:51:56.533Z,1013.75
2023-01-05T10:52:53.016Z,1013.72
2023-01-05T10:53:51.979Z,1013.80
2023-01-05T10:54:52.009Z,1013.76
2023-01-05T10:55:51.982Z,1013.67
2023-01-05T10:56:52.077Z,1013.76
2023-01-05T10:57:51.966Z,1013.80
2023-01-05T10:58:51.932Z,1013.82
2023-01-05T10:59:51.955Z,1013.75
2023-01-05T11:00:51.928Z,1013.78
2023-01-05T11:01:52.097Z,1013.76
2023-01-05T11:02:51.901Z,1013.76
2023-01-05T11:04:52.887Z,1013.77
2023-01-05T11:05:51.873Z,1013.77
2023-01-05T11:06:51.854Z,1013.73
2023-01-05T11:07:52.120Z,1013.75
2023-01-05T11:08:51.805Z,1013.72
2023-01-05T11:09:51.826Z,1013.86
2023-01-05T11:10:52.590Z,1013.91
2023-01-05T11:11:51.788Z,1013.83
2023-01-05T11:12:51.899Z,1013.74
2023-01-05T11:13:51.775Z,1013.76
2023-01-05T11:14:57.856Z,1013.75
2023-01-05T11:15:52.861Z,1013.75
2023-01-05T11:16:51.723Z,1013.61
2023-01-05T11:17:51.745Z,1013.63
2023-01-05T11:18:51.691Z,1013.77
2023-01-05T11:19:51.729Z,1013.66
2023-01-05T11:20:51.687Z,1013.65
2023-01-05T11:21:56.611Z,1013.75
2023-01-05T11:22:52.649Z,1013.78
2023-01-05T11:23:51.700Z,1013.63
2023-01-05T11:24:51.630Z,1013.55
2023-01-05T11:25:51.631Z,1013.77
2023-01-05T11:26:51.620Z,1013.63
2023-01-05T11:27:58.130Z,1013.61
2023-01-05T11:28:52.710Z,1013.66
2023-01-05T11:29:51.586Z,1013.85
2023-01-05T11:30:51.634Z,1013.79
2023-01-05T11:31:51.567Z,1013.71
2023-01-05T11:32:51.535Z,1013.76
2023-01-05T11:33:51.528Z,1013.82
2023-01-05T11:34:51.546Z,1013.79
2023-01-05T11:35:51.518Z,1013.78
2023-01-05T11:36:51.481Z,1013.81
2023-01-05T11:37:51.491Z,1013.89
2023-01-05T11:38:51.488Z,1013.79
2023-01-05T11:39:51.482Z,1013.80
2023-01-05T11:40:51.472Z,1013.77
2023-01-05T11:41:51.446Z,1013.75
2023-01-05T11:42:51.418Z,1013.72
2023-01-05T11:43:51.433Z,1013.75
2023-01-05T11:44:51.539Z,1013.65
2023-01-05T11:45:51.396Z,1013.83
2023-01-05T11:46:51.549Z,1013.73
2023-01-05T11:47:51.388Z,1013.66
2023-01-05T11:48:51.387Z,1013.76
2023-01-05T11:49:56.764Z,1013.68
2023-01-05T11:50:52.354Z,1013.72
2023-01-05T11:51:51.336Z,1013.87
2023-01-05T11:52:51.295Z,1013.68
2023-01-05T11:53:51.298Z,1013.72
2023-01-05T11:54:51.292Z,1013.79
2023-01-05T11:55:51.608Z,1013.80
2023-01-05T11:56:51.260Z,1013.74
2023-01-05T11:57:57.517Z,1013.72
2023-01-05T11:58:52.245Z,1013.85
2023-01-05T11:59:51.232Z,1013.84
2023-01-05T12:00:51.380Z,1013.74
2023-01-05T12:01:51.239Z,1013.73
2023-01-05T12:02:51.234Z,1013.70
2023-01-05T12:03:55.478Z,1013.69
2023-01-05T12:04:52.179Z,1013.72
2023-01-05T12:05:51.153Z,1013.67
2023-01-05T12:06:51.152Z,1013.72